sensor_id;sensor_type;location;lat;lon;timestamp;pressure;altitude;pressure_sealevel;temperature;humidity
37078;BME280;22989;55.998;37.212;2023-04-23T00:00:05;-11298.94;;;-145.39;46.88
37078;BME280;22989;55.998;37.212;2023-04-23T00:02:37;-11298.94;;;-145.39;46.98
37078;BME280;22989;55.998;37.212;2023-04-23T00:05:04;-11298.94;;;-145.39;47.08
37078;BME280;22989;55.998;37.212;2023-04-23T00:07:33;-11298.94;;;-145.39;47.27
37078;BME280;22989;55.998;37.212;2023-04-23T00:09:59;-11298.94;;;-145.39;47.26
37078;BME280;22989;55.998;37.212;2023-04-23T00:12:25;-11298.94;;;-145.39;47.35
37078;BME280;22989;55.998;37.212;2023-04-23T00:14:51;-11298.94;;;-145.39;47.34
37078;BME280;22989;55.998;37.212;2023-04-23T00:17:17;-11298.94;;;-145.39;47.26
37078;BME280;22989;55.998;37.212;2023-04-23T00:19:42;-11298.94;;;-145.39;47.26
37078;BME280;22989;55.998;37.212;2023-04-23T00:22:07;-11298.94;;;-145.39;47.30
37078;BME280;22989;55.998;37.212;2023-04-23T00:24:33;-11298.94;;;-145.39;47.37
37078;BME280;22989;55.998;37.212;2023-04-23T00:27:00;-11298.94;;;-145.39;47.39
37078;BME280;22989;55.998;37.212;2023-04-23T00:29:26;-11298.94;;;-145.39;47.47
37078;BME280;22989;55.998;37.212;2023-04-23T00:31:51;-11298.94;;;-145.39;47.57
37078;BME280;22989;55.998;37.212;2023-04-23T00:34:17;-11298.94;;;-145.39;47.56
37078;BME280;22989;55.998;37.212;2023-04-23T00:36:42;-11298.94;;;-145.39;47.57
37078;BME280;22989;55.998;37.212;2023-04-23T00:39:07;-11298.94;;;-145.39;47.77
37078;BME280;22989;55.998;37.212;2023-04-23T00:41:35;-11298.94;;;-145.39;47.35
37078;BME280;22989;55.998;37.212;2023-04-23T00:44:00;-11298.94;;;-145.39;46.66
37078;BME280;22989;55.998;37.212;2023-04-23T00:46:27;-11298.94;;;-145.39;46.02
37078;BME280;22989;55.998;37.212;2023-04-23T00:48:53;-11298.94;;;-145.39;45.83
37078;BME280;22989;55.998;37.212;2023-04-23T00:51:19;-11298.94;;;-145.39;45.58
37078;BME280;22989;55.998;37.212;2023-04-23T00:53:45;-11298.94;;;-145.39;45.60
37078;BME280;22989;55.998;37.212;2023-04-23T00:56:11;-11298.94;;;-145.39;45.25
37078;BME280;22989;55.998;37.212;2023-04-23T00:58:37;-11298.94;;;-145.39;44.90
37078;BME280;22989;55.998;37.212;2023-04-23T01:01:02;-11298.94;;;-145.39;44.55
37078;BME280;22989;55.998;37.212;2023-04-23T01:03:29;-11298.94;;;-145.39;44.40
37078;BME280;22989;55.998;37.212;2023-04-23T01:05:56;-11298.94;;;-145.39;44.14
37078;BME280;22989;55.998;37.212;2023-04-23T01:08:22;-11298.94;;;-145.39;43.87
37078;BME280;22989;55.998;37.212;2023-04-23T01:10:49;-11298.94;;;-145.39;43.51
37078;BME280;22989;55.998;37.212;2023-04-23T01:13:15;-11298.94;;;-145.39;43.31
37078;BME280;22989;55.998;37.212;2023-04-23T01:15:41;-11298.94;;;-145.39;43.10
37078;BME280;22989;55.998;37.212;2023-04-23T01:18:06;-11298.94;;;-145.39;42.94
37078;BME280;22989;55.998;37.212;2023-04-23T01:20:33;-11298.94;;;-145.39;42.77
37078;BME280;22989;55.998;37.212;2023-04-23T01:22:59;-11298.94;;;-145.39;42.69
37078;BME280;22989;55.998;37.212;2023-04-23T01:25:25;-11298.94;;;-145.39;42.65
37078;BME280;22989;55.998;37.212;2023-04-23T01:27:51;-11298.94;;;-145.39;42.79
37078;BME280;22989;55.998;37.212;2023-04-23T01:30:16;-11298.94;;;-145.39;43.11
37078;BME280;22989;55.998;37.212;2023-04-23T01:32:42;-11298.94;;;-145.39;43.33
37078;BME280;22989;55.998;37.212;2023-04-23T01:35:08;-11298.94;;;-145.39;43.32
37078;BME280;22989;55.998;37.212;2023-04-23T01:37:34;-11298.94;;;-145.39;43.33
37078;BME280;22989;55.998;37.212;2023-04-23T01:40:00;-11298.94;;;-145.39;43.08
37078;BME280;22989;55.998;37.212;2023-04-23T01:42:25;-11298.94;;;-145.39;42.93
37078;BME280;22989;55.998;37.212;2023-04-23T01:44:52;-11298.94;;;-145.39;42.99
37078;BME280;22989;55.998;37.212;2023-04-23T01:47:18;-11298.94;;;-145.39;43.09
37078;BME280;22989;55.998;37.212;2023-04-23T01:49:43;-11298.94;;;-145.39;43.14
37078;BME280;22989;55.998;37.212;2023-04-23T01:52:09;-11298.94;;;-145.39;42.99
37078;BME280;22989;55.998;37.212;2023-04-23T01:54:35;-11298.94;;;-145.39;43.03
37078;BME280;22989;55.998;37.212;2023-04-23T01:57:01;-11298.94;;;-145.39;43.21
37078;BME280;22989;55.998;37.212;2023-04-23T01:59:27;-11298.94;;;-145.39;43.31
37078;BME280;22989;55.998;37.212;2023-04-23T02:01:52;-11298.94;;;-145.39;43.38
37078;BME280;22989;55.998;37.212;2023-04-23T02:04:18;-11298.94;;;-145.39;43.36
37078;BME280;22989;55.998;37.212;2023-04-23T02:06:44;-11298.94;;;-145.39;43.35
37078;BME280;22989;55.998;37.212;2023-04-23T02:09:11;-11298.94;;;-145.39;43.42
37078;BME280;22989;55.998;37.212;2023-04-23T02:11:37;-11298.94;;;-145.39;43.51
37078;BME280;22989;55.998;37.212;2023-04-23T02:14:03;-11298.94;;;-145.39;43.17
37078;BME280;22989;55.998;37.212;2023-04-23T02:16:28;-11298.94;;;-145.39;42.87
37078;BME280;22989;55.998;37.212;2023-04-23T02:18:55;-11298.94;;;-145.39;42.64
37078;BME280;22989;55.998;37.212;2023-04-23T02:21:21;-11298.94;;;-145.39;42.20
37078;BME280;22989;55.998;37.212;2023-04-23T02:23:47;-11298.94;;;-145.39;41.87
37078;BME280;22989;55.998;37.212;2023-04-23T02:26:12;-11298.94;;;-145.39;41.67
37078;BME280;22989;55.998;37.212;2023-04-23T02:28:38;-11298.94;;;-145.39;41.36
37078;BME280;22989;55.998;37.212;2023-04-23T02:31:04;-11298.94;;;-145.39;41.01
37078;BME280;22989;55.998;37.212;2023-04-23T02:33:29;-11298.94;;;-145.39;40.90
37078;BME280;22989;55.998;37.212;2023-04-23T02:35:55;-11298.94;;;-145.39;41.22
37078;BME280;22989;55.998;37.212;2023-04-23T02:38:20;-11298.94;;;-145.39;41.66
37078;BME280;22989;55.998;37.212;2023-04-23T02:40:46;-11298.94;;;-145.39;42.09
37078;BME280;22989;55.998;37.212;2023-04-23T02:43:11;-11298.94;;;-145.39;42.45
37078;BME280;22989;55.998;37.212;2023-04-23T02:45:37;-11298.94;;;-145.39;42.33
37078;BME280;22989;55.998;37.212;2023-04-23T02:48:02;-11298.94;;;-145.39;42.19
37078;BME280;22989;55.998;37.212;2023-04-23T02:50:28;-11298.94;;;-145.39;42.16
37078;BME280;22989;55.998;37.212;2023-04-23T02:52:54;-11298.94;;;-145.39;42.42
37078;BME280;22989;55.998;37.212;2023-04-23T02:55:19;-11298.94;;;-145.39;42.87
37078;BME280;22989;55.998;37.212;2023-04-23T02:57:45;-11298.94;;;-145.39;43.04
37078;BME280;22989;55.998;37.212;2023-04-23T03:00:10;-11298.94;;;-145.39;43.10
37078;BME280;22989;55.998;37.212;2023-04-23T03:02:39;-11298.94;;;-145.39;43.02
37078;BME280;22989;55.998;37.212;2023-04-23T03:05:06;-11298.94;;;-145.39;43.14
37078;BME280;22989;55.998;37.212;2023-04-23T03:07:32;-11298.94;;;-145.39;43.16
37078;BME280;22989;55.998;37.212;2023-04-23T03:09:57;-11298.94;;;-145.39;43.35
37078;BME280;22989;55.998;37.212;2023-04-23T03:12:23;-11298.94;;;-145.39;43.19
37078;BME280;22989;55.998;37.212;2023-04-23T03:14:48;-11298.94;;;-145.39;42.68
37078;BME280;22989;55.998;37.212;2023-04-23T03:17:14;-11298.94;;;-145.39;42.25
37078;BME280;22989;55.998;37.212;2023-04-23T03:19:40;-11298.94;;;-145.39;41.89
37078;BME280;22989;55.998;37.212;2023-04-23T03:22:06;-11298.94;;;-145.39;41.37
37078;BME280;22989;55.998;37.212;2023-04-23T03:24:32;-11298.94;;;-145.39;40.87
37078;BME280;22989;55.998;37.212;2023-04-23T03:26:57;-11298.94;;;-145.39;40.42
37078;BME280;22989;55.998;37.212;2023-04-23T03:29:23;-11298.94;;;-145.39;40.20
37078;BME280;22989;55.998;37.212;2023-04-23T03:31:48;-11298.94;;;-145.39;40.10
37078;BME280;22989;55.998;37.212;2023-04-23T03:34:14;-11298.94;;;-145.39;39.74
37078;BME280;22989;55.998;37.212;2023-04-23T03:36:40;-11298.94;;;-145.39;39.22
37078;BME280;22989;55.998;37.212;2023-04-23T03:39:06;-11298.94;;;-145.39;38.96
37078;BME280;22989;55.998;37.212;2023-04-23T03:41:47;-11298.94;;;-145.39;38.96
37078;BME280;22989;55.998;37.212;2023-04-23T03:44:16;-11298.94;;;-145.39;38.99
37078;BME280;22989;55.998;37.212;2023-04-23T03:46:44;-11298.94;;;-145.39;39.03
37078;BME280;22989;55.998;37.212;2023-04-23T03:49:09;-11298.94;;;-145.39;38.94
37078;BME280;22989;55.998;37.212;2023-04-23T03:51:35;-11298.94;;;-145.39;38.89
37078;BME280;22989;55.998;37.212;2023-04-23T03:54:01;-11298.94;;;-145.39;38.73
37078;BME280;22989;55.998;37.212;2023-04-23T03:56:39;-11298.94;;;-145.39;38.61
37078;BME280;22989;55.998;37.212;2023-04-23T03:59:25;-11298.94;;;-145.39;38.08
37078;BME280;22989;55.998;37.212;2023-04-23T04:01:53;-11298.94;;;-145.39;37.92
37078;BME280;22989;55.998;37.212;2023-04-23T04:04:18;-11298.94;;;-145.39;37.52
37078;BME280;22989;55.998;37.212;2023-04-23T04:06:44;-11298.94;;;-145.39;37.58
37078;BME280;22989;55.998;37.212;2023-04-23T04:09:10;-11298.94;;;-145.39;37.45
37078;BME280;22989;55.998;37.212;2023-04-23T04:11:35;-11298.94;;;-145.39;37.60
37078;BME280;22989;55.998;37.212;2023-04-23T04:14:01;-11298.94;;;-145.39;37.07
37078;BME280;22989;55.998;37.212;2023-04-23T04:16:26;-11298.94;;;-145.39;37.18
37078;BME280;22989;55.998;37.212;2023-04-23T04:18:52;-11298.94;;;-145.39;37.13
37078;BME280;22989;55.998;37.212;2023-04-23T04:21:17;-11298.94;;;-145.39;36.95
37078;BME280;22989;55.998;37.212;2023-04-23T04:23:46;-11298.94;;;-145.39;36.85
37078;BME280;22989;55.998;37.212;2023-04-23T04:26:11;-11298.94;;;-145.39;36.76
37078;BME280;22989;55.998;37.212;2023-04-23T04:28:38;-11298.94;;;-145.39;36.82
37078;BME280;22989;55.998;37.212;2023-04-23T04:31:04;-11298.94;;;-145.39;36.48
37078;BME280;22989;55.998;37.212;2023-04-23T04:33:29;-11298.94;;;-145.39;36.38
37078;BME280;22989;55.998;37.212;2023-04-23T04:35:55;-11298.94;;;-145.39;35.66
37078;BME280;22989;55.998;37.212;2023-04-23T04:38:21;-11298.94;;;-145.39;35.01
37078;BME280;22989;55.998;37.212;2023-04-23T04:40:46;-11298.94;;;-145.39;34.53
37078;BME280;22989;55.998;37.212;2023-04-23T04:43:13;-11298.94;;;-145.39;34.44
37078;BME280;22989;55.998;37.212;2023-04-23T04:45:40;-11298.94;;;-145.39;34.39
37078;BME280;22989;55.998;37.212;2023-04-23T04:48:06;-11298.94;;;-145.39;34.27
37078;BME280;22989;55.998;37.212;2023-04-23T04:50:32;-11298.94;;;-145.39;34.20
37078;BME280;22989;55.998;37.212;2023-04-23T04:52:57;-11298.94;;;-145.39;34.00
37078;BME280;22989;55.998;37.212;2023-04-23T04:55:23;-11298.94;;;-145.39;33.70
37078;BME280;22989;55.998;37.212;2023-04-23T04:57:48;-11298.94;;;-145.39;33.61
37078;BME280;22989;55.998;37.212;2023-04-23T05:02:47;-11298.94;;;-145.39;33.38
37078;BME280;22989;55.998;37.212;2023-04-23T05:05:13;-11298.94;;;-145.39;33.34
37078;BME280;22989;55.998;37.212;2023-04-23T05:07:38;-11298.94;;;-145.39;32.95
37078;BME280;22989;55.998;37.212;2023-04-23T05:10:04;-11298.94;;;-145.39;32.83
37078;BME280;22989;55.998;37.212;2023-04-23T05:12:30;-11298.94;;;-145.39;32.46
37078;BME280;22989;55.998;37.212;2023-04-23T05:14:55;-11298.94;;;-145.39;32.28
37078;BME280;22989;55.998;37.212;2023-04-23T05:17:21;-11298.94;;;-145.39;32.18
37078;BME280;22989;55.998;37.212;2023-04-23T05:19:46;-11298.94;;;-145.39;31.92
37078;BME280;22989;55.998;37.212;2023-04-23T05:22:11;-11298.94;;;-145.39;31.95
37078;BME280;22989;55.998;37.212;2023-04-23T05:24:37;-11298.94;;;-145.39;31.84
37078;BME280;22989;55.998;37.212;2023-04-23T05:27:02;-11298.94;;;-145.39;31.61
37078;BME280;22989;55.998;37.212;2023-04-23T05:29:28;-11298.94;;;-145.39;31.29
37078;BME280;22989;55.998;37.212;2023-04-23T05:31:53;-11298.94;;;-145.39;30.97
37078;BME280;22989;55.998;37.212;2023-04-23T05:34:18;-11298.94;;;-145.39;30.83
37078;BME280;22989;55.998;37.212;2023-04-23T05:36:44;-11298.94;;;-145.39;30.48
37078;BME280;22989;55.998;37.212;2023-04-23T05:39:09;-11298.94;;;-145.39;30.13
37078;BME280;22989;55.998;37.212;2023-04-23T05:41:35;-11298.94;;;-145.39;30.21
37078;BME280;22989;55.998;37.212;2023-04-23T05:44:00;-11298.94;;;-145.39;29.96
37078;BME280;22989;55.998;37.212;2023-04-23T05:46:26;-11298.94;;;-145.39;29.52
37078;BME280;22989;55.998;37.212;2023-04-23T05:48:51;-11298.94;;;-145.39;29.10
37078;BME280;22989;55.998;37.212;2023-04-23T05:51:17;-11298.94;;;-145.39;27.98
37078;BME280;22989;55.998;37.212;2023-04-23T05:53:43;-11298.94;;;-145.39;27.15
37078;BME280;22989;55.998;37.212;2023-04-23T05:56:08;-11298.94;;;-145.39;26.80
37078;BME280;22989;55.998;37.212;2023-04-23T05:58:34;-11298.94;;;-145.39;26.75
37078;BME280;22989;55.998;37.212;2023-04-23T06:00:59;-11298.94;;;-145.39;26.98
37078;BME280;22989;55.998;37.212;2023-04-23T06:03:25;-11298.94;;;-145.39;24.66
37078;BME280;22989;55.998;37.212;2023-04-23T06:05:50;-11298.94;;;-145.39;23.40
37078;BME280;22989;55.998;37.212;2023-04-23T06:08:16;-11298.94;;;-145.39;23.06
37078;BME280;22989;55.998;37.212;2023-04-23T06:10:41;-11298.94;;;-145.39;23.13
37078;BME280;22989;55.998;37.212;2023-04-23T06:13:07;-11298.94;;;-145.39;22.78
37078;BME280;22989;55.998;37.212;2023-04-23T06:15:33;-11298.94;;;-145.39;21.55
37078;BME280;22989;55.998;37.212;2023-04-23T06:17:58;-11298.94;;;-145.39;20.89
37078;BME280;22989;55.998;37.212;2023-04-23T06:20:24;-11298.94;;;-145.39;20.98
37078;BME280;22989;55.998;37.212;2023-04-23T06:22:50;-11298.94;;;-145.39;19.74
37078;BME280;22989;55.998;37.212;2023-04-23T06:25:15;-11298.94;;;-145.39;20.41
37078;BME280;22989;55.998;37.212;2023-04-23T06:27:40;-11298.94;;;-145.39;20.04
37078;BME280;22989;55.998;37.212;2023-04-23T06:30:13;-11298.94;;;-145.39;21.65
37078;BME280;22989;55.998;37.212;2023-04-23T06:32:39;-11298.94;;;-145.39;20.74
37078;BME280;22989;55.998;37.212;2023-04-23T06:35:05;-11298.94;;;-145.39;20.36
37078;BME280;22989;55.998;37.212;2023-04-23T06:37:30;-11298.94;;;-145.39;18.86
37078;BME280;22989;55.998;37.212;2023-04-23T06:39:59;-11298.94;;;-145.39;19.71
37078;BME280;22989;55.998;37.212;2023-04-23T06:42:24;-11298.94;;;-145.39;18.28
37078;BME280;22989;55.998;37.212;2023-04-23T06:45:16;-11298.94;;;-145.39;17.94
37078;BME280;22989;55.998;37.212;2023-04-23T06:47:41;-11298.94;;;-145.39;17.71
37078;BME280;22989;55.998;37.212;2023-04-23T06:50:07;-11298.94;;;-145.39;17.96
37078;BME280;22989;55.998;37.212;2023-04-23T06:52:32;-11298.94;;;-145.39;17.71
37078;BME280;22989;55.998;37.212;2023-04-23T06:54:58;-11298.94;;;-145.39;18.49
37078;BME280;22989;55.998;37.212;2023-04-23T06:57:24;-11298.94;;;-145.39;16.82
37078;BME280;22989;55.998;37.212;2023-04-23T06:59:49;-11298.94;;;-145.39;16.92
37078;BME280;22989;55.998;37.212;2023-04-23T07:02:16;-11298.94;;;-145.39;16.69
37078;BME280;22989;55.998;37.212;2023-04-23T07:04:42;-11298.94;;;-145.39;16.23
37078;BME280;22989;55.998;37.212;2023-04-23T07:07:07;-11298.94;;;-145.39;16.28
37078;BME280;22989;55.998;37.212;2023-04-23T07:09:33;-11298.94;;;-145.39;16.62
37078;BME280;22989;55.998;37.212;2023-04-23T07:11:58;-11298.94;;;-145.39;17.89
37078;BME280;22989;55.998;37.212;2023-04-23T07:14:25;-11298.94;;;-145.39;17.07
37078;BME280;22989;55.998;37.212;2023-04-23T07:16:51;-11298.94;;;-145.39;16.21
37078;BME280;22989;55.998;37.212;2023-04-23T07:19:16;-11298.94;;;-145.39;16.50
37078;BME280;22989;55.998;37.212;2023-04-23T07:21:42;-11298.94;;;-145.39;17.43
37078;BME280;22989;55.998;37.212;2023-04-23T07:24:07;-11298.94;;;-145.39;18.86
37078;BME280;22989;55.998;37.212;2023-04-23T07:26:33;-11298.94;;;-145.39;18.85
37078;BME280;22989;55.998;37.212;2023-04-23T07:28:59;-11298.94;;;-145.39;19.53
37078;BME280;22989;55.998;37.212;2023-04-23T07:31:25;-11298.94;;;-145.39;19.31
37078;BME280;22989;55.998;37.212;2023-04-23T07:33:51;-11298.94;;;-145.39;19.93
37078;BME280;22989;55.998;37.212;2023-04-23T07:36:16;-11298.94;;;-145.39;19.62
37078;BME280;22989;55.998;37.212;2023-04-23T07:38:42;-11298.94;;;-145.39;20.05
37078;BME280;22989;55.998;37.212;2023-04-23T07:41:07;-11298.94;;;-145.39;20.03
37078;BME280;22989;55.998;37.212;2023-04-23T07:43:33;-11298.94;;;-145.39;19.40
37078;BME280;22989;55.998;37.212;2023-04-23T07:45:58;-11298.94;;;-145.39;19.15
37078;BME280;22989;55.998;37.212;2023-04-23T07:48:23;-11298.94;;;-145.39;19.29
37078;BME280;22989;55.998;37.212;2023-04-23T07:50:49;-11298.94;;;-145.39;18.74
37078;BME280;22989;55.998;37.212;2023-04-23T07:53:15;-11298.94;;;-145.39;19.13
37078;BME280;22989;55.998;37.212;2023-04-23T07:55:41;-11298.94;;;-145.39;19.37
37078;BME280;22989;55.998;37.212;2023-04-23T07:58:06;-11298.94;;;-145.39;19.38
37078;BME280;22989;55.998;37.212;2023-04-23T08:00:32;-11298.94;;;-145.39;19.83
37078;BME280;22989;55.998;37.212;2023-04-23T08:02:57;-11298.94;;;-145.39;19.55
37078;BME280;22989;55.998;37.212;2023-04-23T08:05:23;-11298.94;;;-145.39;19.55
37078;BME280;22989;55.998;37.212;2023-04-23T08:07:48;-11298.94;;;-145.39;19.87
37078;BME280;22989;55.998;37.212;2023-04-23T08:10:14;-11298.94;;;-145.39;19.57
37078;BME280;22989;55.998;37.212;2023-04-23T08:12:40;-11298.94;;;-145.39;19.76
37078;BME280;22989;55.998;37.212;2023-04-23T08:15:05;-11298.94;;;-145.39;20.08
37078;BME280;22989;55.998;37.212;2023-04-23T08:17:38;-11298.94;;;-145.39;20.13
37078;BME280;22989;55.998;37.212;2023-04-23T08:20:04;-11298.94;;;-145.39;20.25
37078;BME280;22989;55.998;37.212;2023-04-23T08:22:32;-11298.94;;;-145.39;20.44
37078;BME280;22989;55.998;37.212;2023-04-23T08:24:58;-11298.94;;;-145.39;20.49
37078;BME280;22989;55.998;37.212;2023-04-23T08:27:23;-11298.94;;;-145.39;20.72
37078;BME280;22989;55.998;37.212;2023-04-23T08:29:49;-11298.94;;;-145.39;20.87
37078;BME280;22989;55.998;37.212;2023-04-23T08:32:14;-11298.94;;;-145.39;21.12
37078;BME280;22989;55.998;37.212;2023-04-23T08:34:39;-11298.94;;;-145.39;21.06
37078;BME280;22989;55.998;37.212;2023-04-23T08:37:05;-11298.94;;;-145.39;21.17
37078;BME280;22989;55.998;37.212;2023-04-23T08:39:31;-11298.94;;;-145.39;21.13
37078;BME280;22989;55.998;37.212;2023-04-23T08:41:57;-11298.94;;;-145.39;21.38
37078;BME280;22989;55.998;37.212;2023-04-23T08:44:28;-11298.94;;;-145.39;21.37
37078;BME280;22989;55.998;37.212;2023-04-23T08:46:55;-11298.94;;;-145.39;21.25
37078;BME280;22989;55.998;37.212;2023-04-23T08:49:22;-11298.94;;;-145.39;21.37
37078;BME280;22989;55.998;37.212;2023-04-23T08:51:48;-11298.94;;;-145.39;21.60
37078;BME280;22989;55.998;37.212;2023-04-23T08:54:17;-11298.94;;;-145.39;21.47
37078;BME280;22989;55.998;37.212;2023-04-23T08:56:43;-11298.94;;;-145.39;21.42
37078;BME280;22989;55.998;37.212;2023-04-23T08:59:09;-11298.94;;;-145.39;21.48
37078;BME280;22989;55.998;37.212;2023-04-23T09:01:35;-11298.94;;;-145.39;21.29
37078;BME280;22989;55.998;37.212;2023-04-23T09:04:00;-11298.94;;;-145.39;21.52
37078;BME280;22989;55.998;37.212;2023-04-23T09:06:26;-11298.94;;;-145.39;21.44
37078;BME280;22989;55.998;37.212;2023-04-23T09:08:52;-11298.94;;;-145.39;21.70
37078;BME280;22989;55.998;37.212;2023-04-23T09:11:19;-11298.94;;;-145.39;21.56
37078;BME280;22989;55.998;37.212;2023-04-23T09:13:47;-11298.94;;;-145.39;21.71
37078;BME280;22989;55.998;37.212;2023-04-23T09:16:13;-11298.94;;;-145.39;21.63
37078;BME280;22989;55.998;37.212;2023-04-23T09:18:38;-11298.94;;;-145.39;21.76
37078;BME280;22989;55.998;37.212;2023-04-23T09:21:04;-11298.94;;;-145.39;21.64
37078;BME280;22989;55.998;37.212;2023-04-23T09:23:31;-11298.94;;;-145.39;21.75
37078;BME280;22989;55.998;37.212;2023-04-23T09:25:56;-11298.94;;;-145.39;21.65
37078;BME280;22989;55.998;37.212;2023-04-23T09:28:32;-11298.94;;;-145.39;21.77
37078;BME280;22989;55.998;37.212;2023-04-23T09:30:58;-11298.94;;;-145.39;21.82
37078;BME280;22989;55.998;37.212;2023-04-23T09:33:23;-11298.94;;;-145.39;21.66
37078;BME280;22989;55.998;37.212;2023-04-23T09:35:49;-11298.94;;;-145.39;21.74
37078;BME280;22989;55.998;37.212;2023-04-23T09:38:17;-11298.94;;;-145.39;21.96
37078;BME280;22989;55.998;37.212;2023-04-23T09:40:43;-11298.94;;;-145.39;21.92
37078;BME280;22989;55.998;37.212;2023-04-23T09:43:09;-11298.94;;;-145.39;22.10
37078;BME280;22989;55.998;37.212;2023-04-23T09:45:34;-11298.94;;;-145.39;22.16
37078;BME280;22989;55.998;37.212;2023-04-23T09:48:00;-11298.94;;;-145.39;22.13
37078;BME280;22989;55.998;37.212;2023-04-23T09:50:33;-11298.94;;;-145.39;22.35
37078;BME280;22989;55.998;37.212;2023-04-23T09:52:59;-11298.94;;;-145.39;22.40
37078;BME280;22989;55.998;37.212;2023-04-23T09:55:31;-11298.94;;;-145.39;22.34
37078;BME280;22989;55.998;37.212;2023-04-23T09:58:02;-11298.94;;;-145.39;22.38
37078;BME280;22989;55.998;37.212;2023-04-23T10:00:35;-11298.94;;;-145.39;22.50
37078;BME280;22989;55.998;37.212;2023-04-23T10:03:02;-11298.94;;;-145.39;22.50
37078;BME280;22989;55.998;37.212;2023-04-23T10:05:27;-11298.94;;;-145.39;22.66
37078;BME280;22989;55.998;37.212;2023-04-23T10:07:54;-11298.94;;;-145.39;22.73
37078;BME280;22989;55.998;37.212;2023-04-23T10:10:20;-11298.94;;;-145.39;23.04
37078;BME280;22989;55.998;37.212;2023-04-23T10:12:46;-11298.94;;;-145.39;22.92
37078;BME280;22989;55.998;37.212;2023-04-23T10:15:11;-11298.94;;;-145.39;23.01
37078;BME280;22989;55.998;37.212;2023-04-23T10:17:39;-11298.94;;;-145.39;23.08
37078;BME280;22989;55.998;37.212;2023-04-23T10:20:05;-11298.94;;;-145.39;23.13
37078;BME280;22989;55.998;37.212;2023-04-23T10:22:32;-11298.94;;;-145.39;23.20
37078;BME280;22989;55.998;37.212;2023-04-23T10:24:57;-11298.94;;;-145.39;23.13
37078;BME280;22989;55.998;37.212;2023-04-23T10:27:28;-11298.94;;;-145.39;23.09
37078;BME280;22989;55.998;37.212;2023-04-23T10:29:54;-11298.94;;;-145.39;23.14
37078;BME280;22989;55.998;37.212;2023-04-23T10:32:21;-11298.94;;;-145.39;23.26
37078;BME280;22989;55.998;37.212;2023-04-23T10:34:47;-11298.94;;;-145.39;23.26
37078;BME280;22989;55.998;37.212;2023-04-23T10:37:13;-11298.94;;;-145.39;23.16
37078;BME280;22989;55.998;37.212;2023-04-23T10:39:43;-11298.94;;;-145.39;23.16
37078;BME280;22989;55.998;37.212;2023-04-23T10:42:10;-11298.94;;;-145.39;23.24
37078;BME280;22989;55.998;37.212;2023-04-23T10:44:37;-11298.94;;;-145.39;23.15
37078;BME280;22989;55.998;37.212;2023-04-23T10:47:04;-11298.94;;;-145.39;23.23
37078;BME280;22989;55.998;37.212;2023-04-23T10:49:30;-11298.94;;;-145.39;23.26
37078;BME280;22989;55.998;37.212;2023-04-23T10:54:29;-11298.94;;;-145.39;23.26
37078;BME280;22989;55.998;37.212;2023-04-23T10:57:14;-11298.94;;;-145.39;23.25
37078;BME280;22989;55.998;37.212;2023-04-23T10:59:42;-11298.94;;;-145.39;23.26
37078;BME280;22989;55.998;37.212;2023-04-23T11:02:15;-11298.94;;;-145.39;23.42
37078;BME280;22989;55.998;37.212;2023-04-23T11:04:42;-11298.94;;;-145.39;23.40
37078;BME280;22989;55.998;37.212;2023-04-23T11:07:09;-11298.94;;;-145.39;23.42
37078;BME280;22989;55.998;37.212;2023-04-23T11:09:42;-11298.94;;;-145.39;23.45
37078;BME280;22989;55.998;37.212;2023-04-23T11:12:12;-11298.94;;;-145.39;23.47
37078;BME280;22989;55.998;37.212;2023-04-23T11:17:06;-11298.94;;;-145.39;23.31
37078;BME280;22989;55.998;37.212;2023-04-23T11:19:35;-11298.94;;;-145.39;23.24
37078;BME280;22989;55.998;37.212;2023-04-23T11:22:02;-11298.94;;;-145.39;23.21
37078;BME280;22989;55.998;37.212;2023-04-23T11:24:29;-11298.94;;;-145.39;23.18
37078;BME280;22989;55.998;37.212;2023-04-23T11:26:56;-11298.94;;;-145.39;23.20
37078;BME280;22989;55.998;37.212;2023-04-23T11:29:22;-11298.94;;;-145.39;23.18
37078;BME280;22989;55.998;37.212;2023-04-23T11:31:48;-11298.94;;;-145.39;23.15
37078;BME280;22989;55.998;37.212;2023-04-23T11:34:14;-11298.94;;;-145.39;23.08
37078;BME280;22989;55.998;37.212;2023-04-23T11:36:40;-11298.94;;;-145.39;23.21
37078;BME280;22989;55.998;37.212;2023-04-23T11:39:06;-11298.94;;;-145.39;23.33
37078;BME280;22989;55.998;37.212;2023-04-23T11:41:34;-11298.94;;;-145.39;23.44
37078;BME280;22989;55.998;37.212;2023-04-23T11:43:59;-11298.94;;;-145.39;23.43
37078;BME280;22989;55.998;37.212;2023-04-23T11:46:24;-11298.94;;;-145.39;23.26
37078;BME280;22989;55.998;37.212;2023-04-23T11:48:50;-11298.94;;;-145.39;23.19
37078;BME280;22989;55.998;37.212;2023-04-23T11:51:15;-11298.94;;;-145.39;23.17
37078;BME280;22989;55.998;37.212;2023-04-23T11:53:47;-11298.94;;;-145.39;23.04
37078;BME280;22989;55.998;37.212;2023-04-23T11:56:15;-11298.94;;;-145.39;22.95
37078;BME280;22989;55.998;37.212;2023-04-23T11:58:41;-11298.94;;;-145.39;22.94
37078;BME280;22989;55.998;37.212;2023-04-23T12:01:06;-11298.94;;;-145.39;22.95
37078;BME280;22989;55.998;37.212;2023-04-23T12:03:36;-11298.94;;;-145.39;23.00
37078;BME280;22989;55.998;37.212;2023-04-23T12:06:01;-11298.94;;;-145.39;22.90
37078;BME280;22989;55.998;37.212;2023-04-23T12:08:30;-11298.94;;;-145.39;23.10
37078;BME280;22989;55.998;37.212;2023-04-23T12:10:59;-11298.94;;;-145.39;22.97
37078;BME280;22989;55.998;37.212;2023-04-23T12:13:26;-11298.94;;;-145.39;22.96
37078;BME280;22989;55.998;37.212;2023-04-23T12:15:53;-11298.94;;;-145.39;23.13
37078;BME280;22989;55.998;37.212;2023-04-23T12:20:54;-11298.94;;;-145.39;23.13
37078;BME280;22989;55.998;37.212;2023-04-23T12:23:26;-11298.94;;;-145.39;23.09
37078;BME280;22989;55.998;37.212;2023-04-23T12:25:52;-11298.94;;;-145.39;23.15